createdAt,value
2023-03-19T00:02:24.614Z,75.59
2023-03-19T00:04:51.907Z,74.86
2023-03-19T00:07:18.953Z,74.48
2023-03-19T00:09:45.822Z,74.66
2023-03-19T00:12:14.385Z,75.66
2023-03-19T00:14:41.506Z,76.64
2023-03-19T00:17:08.509Z,77.31
2023-03-19T00:19:35.606Z,76.87
2023-03-19T00:22:02.413Z,76.60
2023-03-19T00:24:29.436Z,76.44
2023-03-19T00:26:56.321Z,76.67
2023-03-19T00:29:24.905Z,76.13
2023-03-19T00:31:51.725Z,76.01
2023-03-19T00:34:18.645Z,76.15
2023-03-19T00:36:46.028Z,76.49
2023-03-19T00:39:13.021Z,76.02
2023-03-19T00:41:39.948Z,76.14
2023-03-19T00:44:06.872Z,75.32
2023-03-19T00:46:35.259Z,74.35
2023-03-19T00:49:02.093Z,75.38
2023-03-19T00:51:29.036Z,76.20
2023-03-19T00:53:56.136Z,77.68
2023-03-19T00:56:22.954Z,78.08
2023-03-19T00:58:49.751Z,76.74
2023-03-19T01:01:18.176Z,76.47
2023-03-19T01:03:46.736Z,75.75
2023-03-19T01:06:13.720Z,75.73
2023-03-19T01:08:40.784Z,75.66
2023-03-19T01:11:10.210Z,74.58
2023-03-19T01:13:37.142Z,74.67
2023-03-19T01:16:05.115Z,74.25
2023-03-19T01:18:32.107Z,73.89
2023-03-19T01:21:02.109Z,73.32
2023-03-19T01:23:30.200Z,74.46
2023-03-19T01:25:57.353Z,74.74
2023-03-19T01:28:25.877Z,74.86
2023-03-19T01:30:53.055Z,74.63
2023-03-19T01:33:39.966Z,73.64
2023-03-19T01:36:34.044Z,72.88
2023-03-19T01:39:02.779Z,72.58
2023-03-19T01:41:29.718Z,72.47
2023-03-19T01:44:03.492Z,71.56
2023-03-19T01:46:40.834Z,71.81
2023-03-19T01:49:31.496Z,71.93
2023-03-19T01:52:34.639Z,71.36
2023-03-19T01:55:15.680Z,71.58
2023-03-19T01:58:21.479Z,72.87
2023-03-19T02:01:07.755Z,73.33
2023-03-19T02:03:41.855Z,71.95
2023-03-19T02:06:18.918Z,71.63
2023-03-19T02:08:49.434Z,72.96
2023-03-19T02:11:17.968Z,72.49
2023-03-19T02:13:45.524Z,73.70
2023-03-19T02:16:12.709Z,73.92
2023-03-19T02:18:41.985Z,72.06
2023-03-19T02:21:11.554Z,72.10
2023-03-19T02:23:49.874Z,72.13
2023-03-19T02:26:24.446Z,72.76
2023-03-19T02:28:53.670Z,72.97
2023-03-19T02:31:29.352Z,73.90
2023-03-19T02:33:59.891Z,73.66
2023-03-19T02:36:34.332Z,73.62
2023-03-19T02:39:05.561Z,73.25
2023-03-19T02:41:37.345Z,74.85
2023-03-19T02:44:06.010Z,75.21
2023-03-19T02:46:32.983Z,75.00
2023-03-19T02:48:59.827Z,75.16
2023-03-19T02:51:26.587Z,75.44
2023-03-19T02:53:53.468Z,75.52
2023-03-19T02:56:20.226Z,76.09
2023-03-19T02:58:48.585Z,76.32
2023-03-19T03:01:15.466Z,76.44
2023-03-19T03:03:42.612Z,76.11
2023-03-19T03:06:09.724Z,78.17
2023-03-19T03:08:37.032Z,79.96
2023-03-19T03:11:03.940Z,82.59
2023-03-19T03:13:31.039Z,83.40
2023-03-19T03:15:59.296Z,83.31
2023-03-19T03:18:26.641Z,82.90
2023-03-19T03:20:53.448Z,83.43
2023-03-19T03:23:20.547Z,84.01
2023-03-19T03:25:49.470Z,82.68
2023-03-19T03:28:16.245Z,82.12
2023-03-19T03:30:43.148Z,82.53
2023-03-19T03:33:12.254Z,82.57
2023-03-19T03:35:39.682Z,82.81
2023-03-19T03:38:06.713Z,82.73
2023-03-19T03:40:33.786Z,82.04
2023-03-19T03:43:00.728Z,81.55
2023-03-19T03:45:27.771Z,81.76
2023-03-19T03:47:54.663Z,83.03
2023-03-19T03:50:22.818Z,83.52
2023-03-19T03:52:52.556Z,83.98
2023-03-19T03:55:19.396Z,82.81
2023-03-19T03:57:46.293Z,83.83
2023-03-19T04:00:22.000Z,84.44
2023-03-19T04:02:48.959Z,84.00
2023-03-19T04:05:17.147Z,84.26
2023-03-19T04:07:45.778Z,84.15
2023-03-19T04:10:13.173Z,84.42
2023-03-19T04:16:31.367Z,84.03
2023-03-19T04:18:58.657Z,84.65
2023-03-19T04:21:25.771Z,83.27
2023-03-19T04:23:54.024Z,82.68
2023-03-19T04:26:20.913Z,83.49
2023-03-19T04:28:47.692Z,83.42
2023-03-19T04:31:14.766Z,82.75
2023-03-19T04:33:44.558Z,83.10
2023-03-19T04:36:12.125Z,82.31
2023-03-19T04:38:39.059Z,82.70
2023-03-19T04:41:07.178Z,83.55
2023-03-19T04:43:37.186Z,83.28
2023-03-19T04:46:05.234Z,81.38
2023-03-19T04:48:32.367Z,81.13
2023-03-19T04:50:59.769Z,81.24
2023-03-19T04:53:26.586Z,81.79
2023-03-19T04:55:53.760Z,80.29
2023-03-19T04:58:22.551Z,80.26
2023-03-19T05:00:56.808Z,80.61
2023-03-19T05:03:43.650Z,80.37
2023-03-19T05:06:10.684Z,78.88
2023-03-19T05:08:37.736Z,80.74
2023-03-19T05:11:04.975Z,79.88
2023-03-19T05:13:43.391Z,78.97
2023-03-19T05:16:10.423Z,79.20
2023-03-19T05:18:39.442Z,78.62
2023-03-19T05:21:11.032Z,79.63
2023-03-19T05:23:38.401Z,79.83
2023-03-19T05:26:08.700Z,79.77
2023-03-19T05:29:13.102Z,80.36
2023-03-19T05:31:52.673Z,80.59
2023-03-19T05:34:21.242Z,80.73
2023-03-19T05:36:49.213Z,81.20
2023-03-19T05:39:18.699Z,81.95
2023-03-19T05:41:45.823Z,81.65
2023-03-19T05:44:19.316Z,80.18
2023-03-19T05:47:11.282Z,79.63
2023-03-19T05:49:40.931Z,77.62
2023-03-19T05:52:08.014Z,78.79
2023-03-19T05:54:35.278Z,79.83
2023-03-19T05:57:07.846Z,80.59
2023-03-19T05:59:45.864Z,79.04
2023-03-19T06:02:24.478Z,78.37
2023-03-19T06:04:59.221Z,77.71
2023-03-19T06:07:29.310Z,77.79
2023-03-19T06:09:56.785Z,79.06
2023-03-19T06:12:23.794Z,78.87
2023-03-19T06:15:11.673Z,78.21
2023-03-19T06:17:44.297Z,77.92
2023-03-19T06:20:13.351Z,78.65
2023-03-19T06:22:41.697Z,78.48
2023-03-19T06:25:09.377Z,78.78
2023-03-19T06:27:37.896Z,78.44
2023-03-19T06:30:24.080Z,78.67
2023-03-19T06:32:51.483Z,78.03
2023-03-19T06:35:18.908Z,78.35
2023-03-19T06:37:48.452Z,77.63
2023-03-19T06:40:15.901Z,78.91
2023-03-19T06:42:45.955Z,77.65
2023-03-19T06:45:13.867Z,77.42
2023-03-19T06:47:42.522Z,78.58
2023-03-19T06:50:11.486Z,78.33
2023-03-19T06:52:38.533Z,77.84
2023-03-19T06:55:07.374Z,78.89
2023-03-19T06:57:34.927Z,77.62
2023-03-19T07:00:02.326Z,78.58
2023-03-19T07:02:29.413Z,79.08
2023-03-19T07:04:57.581Z,78.25
2023-03-19T07:07:24.913Z,77.44
2023-03-19T07:09:51.938Z,77.65
2023-03-19T07:12:18.972Z,76.40
2023-03-19T07:14:45.708Z,76.33
2023-03-19T07:17:12.873Z,76.08
2023-03-19T07:19:39.808Z,77.78
2023-03-19T07:22:08.332Z,77.44
2023-03-19T07:24:35.174Z,76.49
2023-03-19T07:27:02.216Z,77.29
2023-03-19T07:29:29.151Z,77.99
2023-03-19T07:31:56.147Z,78.25
2023-03-19T07:34:23.303Z,78.99
2023-03-19T07:36:50.290Z,79.28
2023-03-19T07:39:18.969Z,77.88
2023-03-19T07:41:46.032Z,78.58
2023-03-19T07:44:14.951Z,77.09
2023-03-19T07:46:42.625Z,76.54
2023-03-19T07:49:09.711Z,76.41
2023-03-19T07:51:36.972Z,77.32
2023-03-19T07:54:04.343Z,77.83
2023-03-19T07:56:33.159Z,76.69
2023-03-19T07:59:00.045Z,77.27
2023-03-19T08:01:27.123Z,76.76
2023-03-19T08:03:54.114Z,75.81
2023-03-19T08:06:20.990Z,75.39
2023-03-19T08:08:47.806Z,74.88
2023-03-19T08:11:14.820Z,74.21
2023-03-19T08:13:43.553Z,73.51
2023-03-19T08:16:11.229Z,73.61
2023-03-19T08:18:48.082Z,70.74
2023-03-19T08:21:17.321Z,70.22
2023-03-19T08:23:46.077Z,70.48
2023-03-19T08:26:13.139Z,70.53
2023-03-19T08:28:43.825Z,69.69
2023-03-19T08:31:14.238Z,67.81
2023-03-19T08:33:44.066Z,64.42
2023-03-19T08:36:15.838Z,59.55
2023-03-19T08:38:45.920Z,61.24
2023-03-19T08:41:16.452Z,58.09
2023-03-19T08:43:47.448Z,51.90
2023-03-19T08:46:14.573Z,45.33
2023-03-19T08:48:42.265Z,52.63
2023-03-19T08:51:12.504Z,50.14
2023-03-19T08:53:39.880Z,52.26
2023-03-19T08:56:08.783Z,54.68
2023-03-19T08:58:35.930Z,55.19
2023-03-19T09:01:09.061Z,57.98
2023-03-19T09:03:36.624Z,58.95
2023-03-19T09:06:07.239Z,58.43
2023-03-19T09:08:35.438Z,57.30
2023-03-19T09:11:03.342Z,59.91
2023-03-19T09:13:30.508Z,60.77
2023-03-19T09:16:00.599Z,60.29
2023-03-19T09:18:30.326Z,58.86
2023-03-19T09:20:57.518Z,58.65
2023-03-19T09:23:25.103Z,56.73
2023-03-19T09:25:55.287Z,55.98
2023-03-19T09:28:25.610Z,55.22
2023-03-19T09:30:53.161Z,57.33
2023-03-19T09:33:20.942Z,57.86
2023-03-19T09:35:57.291Z,57.82
2023-03-19T09:38:24.788Z,58.78
2023-03-19T09:41:09.369Z,58.91
2023-03-19T09:43:59.966Z,55.84
2023-03-19T09:46:42.771Z,49.52
2023-03-19T09:49:20.982Z,52.07
2023-03-19T09:51:54.884Z,52.81
2023-03-19T09:54:34.630Z,51.25
2023-03-19T09:57:03.097Z,48.07
2023-03-19T09:59:30.273Z,48.99
2023-03-19T10:02:28.918Z,50.24
2023-03-19T10:05:11.731Z,50.51
2023-03-19T10:08:11.701Z,51.50
2023-03-19T10:10:55.747Z,49.67
2023-03-19T10:13:44.563Z,50.20
2023-03-19T10:16:21.382Z,49.21
2023-03-19T10:18:51.561Z,47.73
2023-03-19T10:21:27.173Z,47.14
2023-03-19T10:24:01.209Z,47.55
2023-03-19T10:26:31.805Z,45.46
2023-03-19T10:29:07.320Z,45.33
2023-03-19T10:31:52.734Z,45.14
2023-03-19T10:34:30.296Z,43.82
2023-03-19T10:37:05.626Z,40.51
2023-03-19T10:39:38.018Z,43.60
2023-03-19T10:42:44.604Z,40.25
2023-03-19T10:45:24.717Z,38.89
2023-03-19T10:47:52.512Z,36.23
2023-03-19T10:50:22.692Z,35.97
2023-03-19T10:53:00.438Z,39.85
2023-03-19T10:55:31.289Z,40.08
2023-03-19T10:58:05.114Z,38.35
2023-03-19T11:00:34.369Z,39.69
2023-03-19T11:03:03.497Z,37.45
2023-03-19T11:05:32.331Z,37.21
2023-03-19T11:08:03.136Z,37.61
2023-03-19T11:10:35.547Z,34.86
2023-03-19T11:13:06.844Z,34.75
2023-03-19T11:15:37.879Z,35.81
2023-03-19T11:18:20.872Z,36.95
2023-03-19T11:20:55.772Z,38.52
2023-03-19T11:23:28.921Z,37.63
2023-03-19T11:26:01.318Z,36.79
2023-03-19T11:28:28.657Z,35.76
2023-03-19T11:31:06.916Z,36.81
2023-03-19T11:33:52.949Z,39.41
2023-03-19T11:36:28.795Z,40.50
2023-03-19T11:39:21.340Z,40.41
2023-03-19T11:42:25.708Z,40.67
2023-03-19T11:45:08.029Z,40.33
2023-03-19T11:47:52.299Z,39.63
2023-03-19T11:50:39.568Z,36.04
2023-03-19T11:53:24.448Z,34.12
2023-03-19T11:56:08.666Z,40.21
2023-03-19T11:59:26.136Z,39.09
2023-03-19T12:02:30.772Z,37.92
2023-03-19T12:05:20.655Z,36.71
2023-03-19T12:08:06.923Z,38.07
2023-03-19T12:10:52.080Z,40.17
2023-03-19T12:13:42.690Z,42.06
2023-03-19T12:16:24.277Z,41.00
2023-03-19T12:19:28.922Z,42.16
2023-03-19T12:22:12.558Z,43.76
2023-03-19T12:25:09.946Z,44.81
2023-03-19T12:27:47.312Z,45.38
2023-03-19T12:30:34.892Z,44.59
2023-03-19T12:33:24.786Z,44.41
2023-03-19T12:35:56.928Z,44.82
2023-03-19T12:38:36.596Z,44.22
2023-03-19T12:41:08.967Z,44.39
2023-03-19T12:43:45.035Z,45.37
2023-03-19T12:46:18.407Z,46.21
2023-03-19T12:48:53.874Z,46.36
2023-03-19T12:51:27.370Z,46.03
2023-03-19T12:54:00.525Z,45.46
2023-03-19T12:56:39.098Z,45.80
2023-03-19T12:59:19.228Z,46.18
2023-03-19T13:01:53.405Z,47.40
2023-03-19T13:04:31.020Z,47.02
2023-03-19T13:07:07.357Z,52.53
2023-03-19T13:09:40.994Z,54.61
2023-03-19T13:12:18.227Z,61.32
2023-03-19T13:14:55.882Z,64.50
2023-03-19T13:17:33.983Z,60.88
2023-03-19T13:20:15.547Z,61.80
2023-03-19T13:22:53.354Z,63.30
2023-03-19T13:25:29.410Z,61.70
2023-03-19T13:27:56.712Z,58.08
2023-03-19T13:30:24.949Z,58.12
2023-03-19T13:33:03.326Z,56.28
2023-03-19T13:35:43.373Z,58.77
2023-03-19T13:38:24.350Z,56.47
2023-03-19T13:40:53.821Z,58.02
2023-03-19T13:43:42.437Z,59.95
2023-03-19T13:46:41.936Z,61.29
2023-03-19T13:49:29.393Z,54.47
2023-03-19T13:52:01.376Z,56.71
2023-03-19T13:54:39.687Z,57.67
2023-03-19T13:57:31.850Z,58.80
2023-03-19T14:00:55.866Z,58.69
2023-03-19T14:03:29.422Z,56.85
2023-03-19T14:05:59.720Z,54.91
2023-03-19T14:08:34.159Z,57.12
2023-03-19T14:11:04.733Z,55.40
2023-03-19T14:13:40.227Z,57.48
2023-03-19T14:16:26.207Z,57.45
2023-03-19T14:18:57.689Z,57.26
2023-03-19T14:21:46.574Z,57.30
2023-03-19T14:24:56.391Z,57.46
2023-03-19T14:27:28.393Z,58.23
2023-03-19T14:30:00.176Z,58.72
2023-03-19T14:32:36.864Z,60.53
2023-03-19T14:35:06.681Z,63.67
2023-03-19T14:37:46.489Z,66.13
2023-03-19T14:40:20.660Z,66.22
2023-03-19T14:43:04.148Z,67.11
2023-03-19T14:45:50.832Z,67.77
2023-03-19T14:49:20.973Z,70.09
2023-03-19T14:52:00.544Z,69.87
2023-03-19T14:54:42.124Z,70.50
2023-03-19T14:57:18.158Z,71.69
2023-03-19T14:59:49.595Z,72.26
2023-03-19T15:02:35.110Z,72.76
2023-03-19T15:05:05.625Z,71.87
2023-03-19T15:07:37.941Z,72.02
2023-03-19T15:10:13.655Z,72.53
2023-03-19T15:13:20.595Z,71.12
2023-03-19T15:16:25.321Z,72.65
2023-03-19T15:18:52.585Z,72.59
2023-03-19T15:21:22.328Z,72.17
2023-03-19T15:23:49.675Z,73.76
2023-03-19T15:26:29.753Z,73.75
2023-03-19T15:28:58.569Z,73.72
2023-03-19T15:31:50.963Z,73.55
2023-03-19T15:34:23.084Z,73.69
2023-03-19T15:36:54.966Z,72.77
2023-03-19T15:39:28.252Z,74.54
2023-03-19T15:41:57.161Z,77.52
2023-03-19T15:44:33.756Z,78.72
2023-03-19T15:47:06.367Z,79.18
2023-03-19T15:49:39.695Z,79.83
2023-03-19T15:52:15.627Z,78.68
2023-03-19T15:54:49.641Z,77.90
2023-03-19T15:57:18.149Z,78.53
2023-03-19T15:59:47.288Z,76.42
2023-03-19T16:02:31.441Z,77.02
2023-03-19T16:05:24.857Z,77.11
2023-03-19T16:07:53.314Z,76.58
2023-03-19T16:10:35.363Z,76.37
2023-03-19T16:13:04.642Z,75.72
2023-03-19T16:15:43.258Z,76.89
2023-03-19T16:18:25.777Z,79.27
2023-03-19T16:21:08.693Z,80.03
2023-03-19T16:23:40.620Z,78.66
2023-03-19T16:26:18.990Z,78.05
2023-03-19T16:29:02.722Z,77.54
2023-03-19T16:31:41.170Z,77.41
2023-03-19T16:34:25.928Z,77.15
2023-03-19T16:36:52.830Z,77.05
2023-03-19T16:39:32.929Z,76.94
2023-03-19T16:42:28.950Z,77.62
2023-03-19T16:44:56.901Z,79.01
2023-03-19T16:47:25.075Z,79.88
2023-03-19T16:49:54.700Z,80.88
2023-03-19T16:52:29.175Z,81.28
2023-03-19T16:54:59.115Z,80.52
2023-03-19T16:57:27.304Z,81.44
2023-03-19T16:59:54.223Z,82.93
2023-03-19T17:02:21.010Z,83.75
2023-03-19T17:04:49.305Z,84.26
2023-03-19T17:07:21.828Z,84.53
2023-03-19T17:09:48.683Z,84.38
2023-03-19T17:12:17.439Z,85.50
2023-03-19T17:14:44.734Z,86.77
2023-03-19T17:17:19.721Z,86.52
2023-03-19T17:19:49.069Z,86.47
2023-03-19T17:22:16.383Z,86.38
2023-03-19T17:24:44.892Z,85.16
2023-03-19T17:27:12.052Z,85.38
2023-03-19T17:29:38.982Z,86.02
2023-03-19T17:32:17.648Z,86.20
2023-03-19T17:34:44.962Z,86.41
2023-03-19T17:37:14.245Z,87.05
2023-03-19T17:39:41.197Z,86.58
2023-03-19T17:42:18.646Z,85.56
2023-03-19T17:44:45.957Z,84.81
2023-03-19T17:47:13.347Z,85.71
2023-03-19T17:49:40.373Z,87.53
2023-03-19T17:52:15.997Z,87.02
2023-03-19T17:54:43.190Z,87.80
2023-03-19T17:57:13.514Z,87.33
2023-03-19T17:59:40.841Z,87.62
2023-03-19T18:02:24.363Z,87.26
2023-03-19T18:04:52.566Z,87.32
2023-03-19T18:07:21.105Z,86.90
2023-03-19T18:09:48.050Z,85.62
2023-03-19T18:12:14.793Z,85.13
2023-03-19T18:14:42.057Z,84.73
2023-03-19T18:17:15.225Z,85.11
2023-03-19T18:19:48.533Z,85.66
2023-03-19T18:22:18.483Z,86.65
2023-03-19T18:24:51.505Z,86.20
2023-03-19T18:27:25.202Z,85.39
2023-03-19T18:29:54.675Z,85.49
2023-03-19T18:32:32.167Z,85.22
2023-03-19T18:35:00.234Z,85.32
2023-03-19T18:37:30.534Z,84.25
2023-03-19T18:40:02.138Z,84.27
2023-03-19T18:42:28.964Z,84.61
2023-03-19T18:44:55.787Z,84.80
2023-03-19T18:47:23.004Z,84.47
2023-03-19T18:49:49.817Z,84.66
2023-03-19T18:52:19.504Z,84.07
2023-03-19T18:54:46.704Z,84.26
2023-03-19T18:57:18.197Z,83.76
2023-03-19T18:59:46.068Z,83.43
2023-03-19T19:02:30.168Z,83.33
2023-03-19T19:04:57.013Z,83.15
2023-03-19T19:07:24.002Z,83.17
2023-03-19T19:09:50.883Z,83.15
2023-03-19T19:12:19.978Z,82.95
2023-03-19T19:14:48.217Z,82.82
2023-03-19T19:17:20.555Z,82.41
2023-03-19T19:19:47.821Z,83.04
2023-03-19T19:22:16.709Z,83.33
2023-03-19T19:24:50.931Z,83.50
2023-03-19T19:27:24.740Z,83.45
2023-03-19T19:29:53.115Z,84.15
2023-03-19T19:32:23.394Z,85.17
2023-03-19T19:34:50.517Z,86.03
2023-03-19T19:37:21.281Z,86.57
2023-03-19T19:39:56.360Z,86.18
2023-03-19T19:42:26.233Z,86.69
2023-03-19T19:44:56.619Z,86.96
2023-03-19T19:47:25.535Z,86.48
2023-03-19T19:49:52.485Z,86.26
2023-03-19T19:52:19.892Z,86.42
2023-03-19T19:54:47.716Z,87.30
2023-03-19T19:57:19.072Z,88.22
2023-03-19T19:59:49.216Z,88.22
2023-03-19T20:02:21.277Z,88.20
2023-03-19T20:04:48.633Z,89.48
2023-03-19T20:07:15.569Z,88.37
2023-03-19T20:09:43.015Z,87.42
2023-03-19T20:12:20.522Z,87.89
2023-03-19T20:14:51.491Z,88.34
2023-03-19T20:17:19.829Z,88.52
2023-03-19T20:19:47.745Z,87.96
2023-03-19T20:22:14.675Z,88.83
2023-03-19T20:24:45.119Z,89.05
2023-03-19T20:27:21.814Z,88.78
2023-03-19T20:29:53.855Z,88.61
2023-03-19T20:32:33.373Z,87.45
2023-03-19T20:35:15.819Z,87.20
2023-03-19T20:37:47.490Z,86.60
2023-03-19T20:40:18.739Z,86.29
2023-03-19T20:42:48.920Z,85.27
2023-03-19T20:45:24.949Z,85.61
2023-03-19T20:47:52.899Z,86.29
2023-03-19T20:50:24.167Z,86.17
2023-03-19T20:52:52.335Z,86.37
2023-03-19T20:55:23.759Z,87.29
2023-03-19T20:57:51.891Z,87.60
2023-03-19T21:00:26.317Z,86.44
2023-03-19T21:02:56.066Z,86.71
2023-03-19T21:05:29.281Z,86.20
2023-03-19T21:08:00.155Z,86.25
2023-03-19T21:10:42.297Z,85.57
2023-03-19T21:13:14.195Z,85.17
2023-03-19T21:15:43.922Z,85.85
2023-03-19T21:18:11.465Z,86.59
2023-03-19T21:20:43.564Z,87.59
2023-03-19T21:23:20.806Z,87.60
2023-03-19T21:25:48.684Z,87.38
2023-03-19T21:28:25.924Z,86.89
2023-03-19T21:30:57.237Z,86.62
2023-03-19T21:33:37.436Z,86.61
2023-03-19T21:36:07.079Z,86.33
2023-03-19T21:38:34.161Z,85.75
2023-03-19T21:41:05.309Z,87.94
2023-03-19T21:43:41.131Z,88.58
2023-03-19T21:46:23.610Z,89.05
2023-03-19T21:48:51.693Z,88.59
2023-03-19T21:51:18.902Z,90.17
2023-03-19T21:53:46.435Z,90.44
2023-03-19T21:56:21.531Z,90.75
2023-03-19T21:58:50.175Z,90.59
2023-03-19T22:01:22.348Z,89.68
2023-03-19T22:03:50.501Z,89.40
2023-03-19T22:06:17.374Z,88.69
2023-03-19T22:08:44.657Z,87.84
2023-03-19T22:11:19.523Z,88.40
2023-03-19T22:13:47.858Z,88.89
2023-03-19T22:16:21.249Z,88.76
2023-03-19T22:18:48.719Z,89.55
2023-03-19T22:21:17.979Z,89.02
2023-03-19T22:23:50.361Z,88.97
2023-03-19T22:26:36.586Z,88.68
2023-03-19T22:29:15.701Z,88.46
2023-03-19T22:31:44.741Z,88.50
2023-03-19T22:34:15.348Z,88.04
2023-03-19T22:36:42.978Z,87.63
2023-03-19T22:39:09.832Z,87.68
2023-03-19T22:41:40.986Z,87.37
2023-03-19T22:44:17.007Z,86.58
2023-03-19T22:46:45.427Z,86.69
2023-03-19T22:49:16.408Z,85.33
2023-03-19T22:51:43.843Z,86.46
2023-03-19T22:54:11.689Z,86.95
2023-03-19T22:56:38.843Z,89.14
2023-03-19T22:59:08.524Z,88.32
2023-03-19T23:01:40.750Z,88.83
2023-03-19T23:04:21.038Z,88.66
2023-03-19T23:06:49.300Z,88.41
2023-03-19T23:09:19.642Z,88.25
2023-03-19T23:11:47.118Z,88.65
2023-03-19T23:14:26.332Z,86.92
2023-03-19T23:19:29.886Z,86.71
2023-03-19T23:21:59.189Z,86.80
2023-03-19T23:24:27.219Z,85.33
2023-03-19T23:26:56.918Z,87.06
2023-03-19T23:29:30.292Z,87.02
2023-03-19T23:31:57.160Z,86.30
2023-03-19T23:34:25.890Z,86.63
2023-03-19T23:36:53.185Z,86.29
2023-03-19T23:39:20.055Z,85.57
2023-03-19T23:41:52.002Z,86.07
2023-03-19T23:44:19.960Z,84.72
2023-03-19T23:46:50.012Z,85.74
2023-03-19T23:49:27.744Z,85.71
2023-03-19T23:51:55.578Z,86.20
2023-03-19T23:54:30.554Z,85.88
2023-03-19T23:57:01.253Z,85.90
2023-03-19T23:59:34.119Z,86.74
